sensor_id;sensor_type;location;lat;lon;timestamp;P1;durP1;ratioP1;P2;durP2;ratioP2
37273;SDS011;23161;51.250;5.554;2022-09-03T00:01:58;1.55;;;1.10;;
37273;SDS011;23161;51.250;5.554;2022-09-03T00:04:31;2.88;;;1.40;;
37273;SDS011;23161;51.250;5.554;2022-09-03T00:07:29;1.35;;;1.25;;
37273;SDS011;23161;51.250;5.554;2022-09-03T00:10:18;1.60;;;1.30;;
37273;SDS011;23161;51.250;5.554;2022-09-03T00:12:49;1.42;;;1.27;;
37273;SDS011;23161;51.250;5.554;2022-09-03T00:15:19;2.63;;;1.33;;
37273;SDS011;23161;51.250;5.554;2022-09-03T00:17:48;8.43;;;2.05;;
37273;SDS011;23161;51.250;5.554;2022-09-03T00:22:52;4.30;;;1.63;;
37273;SDS011;23161;51.250;5.554;2022-09-03T00:25:26;2.78;;;1.25;;
37273;SDS011;23161;51.250;5.554;2022-09-03T00:27:58;2.05;;;1.85;;
37273;SDS011;23161;51.250;5.554;2022-09-03T00:30:27;2.17;;;1.95;;
37273;SDS011;23161;51.250;5.554;2022-09-03T00:32:58;9.07;;;1.38;;
37273;SDS011;23161;51.250;5.554;2022-09-03T00:38:05;4.38;;;1.40;;
37273;SDS011;23161;51.250;5.554;2022-09-03T00:46:23;3.85;;;1.30;;
37273;SDS011;23161;51.250;5.554;2022-09-03T00:51:26;2.47;;;1.27;;
37273;SDS011;23161;51.250;5.554;2022-09-03T00:54:26;1.85;;;1.02;;
37273;SDS011;23161;51.250;5.554;2022-09-03T00:59:55;1.10;;;1.00;;
37273;SDS011;23161;51.250;5.554;2022-09-03T01:05:26;1.70;;;1.00;;
37273;SDS011;23161;51.250;5.554;2022-09-03T01:14:06;1.42;;;1.33;;
37273;SDS011;23161;51.250;5.554;2022-09-03T01:19:34;1.40;;;1.30;;
37273;SDS011;23161;51.250;5.554;2022-09-03T01:28:15;3.95;;;1.48;;
37273;SDS011;23161;51.250;5.554;2022-09-03T01:30:46;1.48;;;1.38;;
37273;SDS011;23161;51.250;5.554;2022-09-03T01:33:39;1.17;;;1.10;;
37273;SDS011;23161;51.250;5.554;2022-09-03T01:36:11;0.88;;;0.73;;
37273;SDS011;23161;51.250;5.554;2022-09-03T01:39:04;1.10;;;0.88;;
37273;SDS011;23161;51.250;5.554;2022-09-03T01:58:12;7.57;;;2.03;;
37273;SDS011;23161;51.250;5.554;2022-09-03T02:00:45;3.35;;;2.38;;
37273;SDS011;23161;51.250;5.554;2022-09-03T02:03:21;1.27;;;1.17;;
37273;SDS011;23161;51.250;5.554;2022-09-03T02:05:48;1.85;;;1.38;;
37273;SDS011;23161;51.250;5.554;2022-09-03T02:08:17;3.20;;;1.30;;
37273;SDS011;23161;51.250;5.554;2022-09-03T02:10:48;1.27;;;1.20;;
37273;SDS011;23161;51.250;5.554;2022-09-03T02:15:46;1.35;;;1.35;;
37273;SDS011;23161;51.250;5.554;2022-09-03T02:18:19;1.48;;;0.88;;
37273;SDS011;23161;51.250;5.554;2022-09-03T02:20:58;4.43;;;1.23;;
37273;SDS011;23161;51.250;5.554;2022-09-03T02:23:25;1.67;;;1.25;;
37273;SDS011;23161;51.250;5.554;2022-09-03T02:25:57;6.75;;;1.88;;
37273;SDS011;23161;51.250;5.554;2022-09-03T02:28:27;5.50;;;2.15;;
37273;SDS011;23161;51.250;5.554;2022-09-03T02:30:54;1.27;;;1.20;;
37273;SDS011;23161;51.250;5.554;2022-09-03T02:33:21;1.45;;;1.10;;
37273;SDS011;23161;51.250;5.554;2022-09-03T02:35:47;1.40;;;1.30;;
37273;SDS011;23161;51.250;5.554;2022-09-03T02:38:17;1.88;;;1.75;;
37273;SDS011;23161;51.250;5.554;2022-09-03T02:40:45;1.58;;;1.48;;
37273;SDS011;23161;51.250;5.554;2022-09-03T02:43:19;2.03;;;1.45;;
37273;SDS011;23161;51.250;5.554;2022-09-03T02:45:56;1.67;;;1.30;;
37273;SDS011;23161;51.250;5.554;2022-09-03T02:48:26;1.90;;;1.33;;
37273;SDS011;23161;51.250;5.554;2022-09-03T02:50:52;1.23;;;1.23;;
37273;SDS011;23161;51.250;5.554;2022-09-03T02:53:17;2.00;;;1.75;;
37273;SDS011;23161;51.250;5.554;2022-09-03T02:55:43;2.45;;;1.35;;
37273;SDS011;23161;51.250;5.554;2022-09-03T02:58:09;2.10;;;1.98;;
37273;SDS011;23161;51.250;5.554;2022-09-03T03:00:36;1.70;;;1.13;;
37273;SDS011;23161;51.250;5.554;2022-09-03T03:03:03;1.35;;;1.25;;
37273;SDS011;23161;51.250;5.554;2022-09-03T03:05:46;2.50;;;2.25;;
37273;SDS011;23161;51.250;5.554;2022-09-03T03:08:15;1.38;;;1.27;;
37273;SDS011;23161;51.250;5.554;2022-09-03T03:10:45;5.05;;;1.27;;
37273;SDS011;23161;51.250;5.554;2022-09-03T03:13:16;1.77;;;1.67;;
37273;SDS011;23161;51.250;5.554;2022-09-03T03:15:43;3.30;;;1.85;;
37273;SDS011;23161;51.250;5.554;2022-09-03T03:18:09;1.92;;;1.55;;
37273;SDS011;23161;51.250;5.554;2022-09-03T03:20:38;1.85;;;1.23;;
37273;SDS011;23161;51.250;5.554;2022-09-03T03:23:06;3.35;;;1.40;;
37273;SDS011;23161;51.250;5.554;2022-09-03T03:25:33;2.80;;;2.22;;
37273;SDS011;23161;51.250;5.554;2022-09-03T03:28:00;2.30;;;1.40;;
37273;SDS011;23161;51.250;5.554;2022-09-03T03:30:26;1.13;;;1.00;;
37273;SDS011;23161;51.250;5.554;2022-09-03T03:32:53;4.35;;;1.58;;
37273;SDS011;23161;51.250;5.554;2022-09-03T03:35:20;2.72;;;1.63;;
37273;SDS011;23161;51.250;5.554;2022-09-03T03:37:46;2.92;;;1.70;;
37273;SDS011;23161;51.250;5.554;2022-09-03T03:40:12;2.40;;;1.92;;
37273;SDS011;23161;51.250;5.554;2022-09-03T03:42:39;1.83;;;1.67;;
37273;SDS011;23161;51.250;5.554;2022-09-03T03:45:05;4.07;;;1.48;;
37273;SDS011;23161;51.250;5.554;2022-09-03T03:47:31;2.15;;;1.23;;
37273;SDS011;23161;51.250;5.554;2022-09-03T03:49:58;1.58;;;1.25;;
37273;SDS011;23161;51.250;5.554;2022-09-03T03:52:25;3.05;;;1.83;;
37273;SDS011;23161;51.250;5.554;2022-09-03T03:54:51;2.42;;;1.35;;
37273;SDS011;23161;51.250;5.554;2022-09-03T03:57:18;1.70;;;1.55;;
37273;SDS011;23161;51.250;5.554;2022-09-03T03:59:45;1.08;;;1.08;;
37273;SDS011;23161;51.250;5.554;2022-09-03T04:02:12;1.20;;;1.10;;
37273;SDS011;23161;51.250;5.554;2022-09-03T04:04:38;1.60;;;1.48;;
37273;SDS011;23161;51.250;5.554;2022-09-03T04:07:04;2.38;;;2.17;;
37273;SDS011;23161;51.250;5.554;2022-09-03T04:09:30;6.63;;;1.98;;
37273;SDS011;23161;51.250;5.554;2022-09-03T04:11:56;2.70;;;1.27;;
37273;SDS011;23161;51.250;5.554;2022-09-03T04:14:22;2.90;;;1.25;;
37273;SDS011;23161;51.250;5.554;2022-09-03T04:16:48;2.28;;;1.73;;
37273;SDS011;23161;51.250;5.554;2022-09-03T04:19:15;1.48;;;1.15;;
37273;SDS011;23161;51.250;5.554;2022-09-03T04:21:42;0.88;;;0.88;;
37273;SDS011;23161;51.250;5.554;2022-09-03T04:24:08;2.45;;;1.25;;
37273;SDS011;23161;51.250;5.554;2022-09-03T04:26:34;2.40;;;1.55;;
37273;SDS011;23161;51.250;5.554;2022-09-03T04:29:04;2.97;;;1.30;;
37273;SDS011;23161;51.250;5.554;2022-09-03T04:31:34;2.35;;;1.67;;
37273;SDS011;23161;51.250;5.554;2022-09-03T04:34:01;3.67;;;1.77;;
37273;SDS011;23161;51.250;5.554;2022-09-03T04:36:30;2.60;;;1.33;;
37273;SDS011;23161;51.250;5.554;2022-09-03T04:38:57;1.83;;;1.50;;
37273;SDS011;23161;51.250;5.554;2022-09-03T04:41:26;1.58;;;1.30;;
37273;SDS011;23161;51.250;5.554;2022-09-03T04:43:53;2.42;;;1.35;;
37273;SDS011;23161;51.250;5.554;2022-09-03T04:46:22;1.52;;;1.42;;
37273;SDS011;23161;51.250;5.554;2022-09-03T04:48:51;1.58;;;1.00;;
37273;SDS011;23161;51.250;5.554;2022-09-03T04:51:19;4.18;;;1.55;;
37273;SDS011;23161;51.250;5.554;2022-09-03T04:53:47;1.10;;;1.00;;
37273;SDS011;23161;51.250;5.554;2022-09-03T04:56:19;1.92;;;1.35;;
37273;SDS011;23161;51.250;5.554;2022-09-03T04:58:47;1.15;;;1.05;;
37273;SDS011;23161;51.250;5.554;2022-09-03T05:01:18;1.67;;;1.58;;
37273;SDS011;23161;51.250;5.554;2022-09-03T05:03:45;1.67;;;1.08;;
37273;SDS011;23161;51.250;5.554;2022-09-03T05:06:12;2.47;;;1.42;;
37273;SDS011;23161;51.250;5.554;2022-09-03T05:08:41;3.88;;;1.08;;
37273;SDS011;23161;51.250;5.554;2022-09-03T05:11:09;2.25;;;1.00;;
37273;SDS011;23161;51.250;5.554;2022-09-03T05:13:35;2.50;;;1.65;;
37273;SDS011;23161;51.250;5.554;2022-09-03T05:16:02;1.40;;;1.27;;
37273;SDS011;23161;51.250;5.554;2022-09-03T05:18:30;1.90;;;1.70;;
37273;SDS011;23161;51.250;5.554;2022-09-03T05:20:59;3.65;;;1.30;;
37273;SDS011;23161;51.250;5.554;2022-09-03T05:23:26;1.30;;;1.20;;
37273;SDS011;23161;51.250;5.554;2022-09-03T05:25:58;3.00;;;1.85;;
37273;SDS011;23161;51.250;5.554;2022-09-03T05:28:26;2.45;;;1.45;;
37273;SDS011;23161;51.250;5.554;2022-09-03T05:31:15;6.15;;;1.60;;
37273;SDS011;23161;51.250;5.554;2022-09-03T05:33:47;2.08;;;1.58;;
37273;SDS011;23161;51.250;5.554;2022-09-03T05:36:23;4.30;;;1.13;;
37273;SDS011;23161;51.250;5.554;2022-09-03T05:38:51;2.13;;;1.27;;
37273;SDS011;23161;51.250;5.554;2022-09-03T05:41:26;3.00;;;1.93;;
37273;SDS011;23161;51.250;5.554;2022-09-03T05:43:53;1.27;;;1.00;;
37273;SDS011;23161;51.250;5.554;2022-09-03T05:46:24;4.50;;;2.50;;
37273;SDS011;23161;51.250;5.554;2022-09-03T05:48:59;5.13;;;1.98;;
37273;SDS011;23161;51.250;5.554;2022-09-03T05:51:27;1.52;;;1.42;;
37273;SDS011;23161;51.250;5.554;2022-09-03T05:53:57;3.72;;;2.10;;
37273;SDS011;23161;51.250;5.554;2022-09-03T05:56:24;2.50;;;1.48;;
37273;SDS011;23161;51.250;5.554;2022-09-03T05:58:52;0.90;;;0.90;;
37273;SDS011;23161;51.250;5.554;2022-09-03T06:01:21;1.23;;;1.20;;
37273;SDS011;23161;51.250;5.554;2022-09-03T06:03:58;1.40;;;1.30;;
37273;SDS011;23161;51.250;5.554;2022-09-03T06:06:26;0.95;;;0.95;;
37273;SDS011;23161;51.250;5.554;2022-09-03T06:08:53;2.63;;;1.55;;
37273;SDS011;23161;51.250;5.554;2022-09-03T06:11:22;2.60;;;1.50;;
37273;SDS011;23161;51.250;5.554;2022-09-03T06:16:18;1.80;;;0.70;;
37273;SDS011;23161;51.250;5.554;2022-09-03T06:18:45;1.35;;;1.08;;
37273;SDS011;23161;51.250;5.554;2022-09-03T06:21:12;6.95;;;2.63;;
37273;SDS011;23161;51.250;5.554;2022-09-03T06:23:39;1.25;;;1.15;;
37273;SDS011;23161;51.250;5.554;2022-09-03T06:26:06;5.63;;;2.85;;
37273;SDS011;23161;51.250;5.554;2022-09-03T06:28:34;4.75;;;1.35;;
37273;SDS011;23161;51.250;5.554;2022-09-03T06:31:02;8.52;;;2.75;;
37273;SDS011;23161;51.250;5.554;2022-09-03T06:33:31;4.32;;;3.17;;
37273;SDS011;23161;51.250;5.554;2022-09-03T06:36:02;4.70;;;2.85;;
37273;SDS011;23161;51.250;5.554;2022-09-03T06:38:30;4.70;;;3.13;;
37273;SDS011;23161;51.250;5.554;2022-09-03T06:41:00;6.15;;;4.28;;
37273;SDS011;23161;51.250;5.554;2022-09-03T06:43:37;16.38;;;5.90;;
37273;SDS011;23161;51.250;5.554;2022-09-03T06:46:06;10.73;;;5.90;;
37273;SDS011;23161;51.250;5.554;2022-09-03T06:48:33;10.90;;;6.03;;
37273;SDS011;23161;51.250;5.554;2022-09-03T06:51:03;16.45;;;7.20;;
37273;SDS011;23161;51.250;5.554;2022-09-03T06:53:34;13.18;;;4.65;;
37273;SDS011;23161;51.250;5.554;2022-09-03T06:56:08;10.45;;;4.60;;
37273;SDS011;23161;51.250;5.554;2022-09-03T06:58:39;11.15;;;4.78;;
37273;SDS011;23161;51.250;5.554;2022-09-03T07:01:11;5.68;;;3.55;;
37273;SDS011;23161;51.250;5.554;2022-09-03T07:03:42;6.35;;;2.65;;
37273;SDS011;23161;51.250;5.554;2022-09-03T07:06:13;9.00;;;3.33;;
37273;SDS011;23161;51.250;5.554;2022-09-03T07:08:40;6.43;;;2.42;;
37273;SDS011;23161;51.250;5.554;2022-09-03T07:11:08;3.13;;;2.72;;
37273;SDS011;23161;51.250;5.554;2022-09-03T07:13:40;3.67;;;2.60;;
37273;SDS011;23161;51.250;5.554;2022-09-03T07:16:14;5.80;;;2.40;;
37273;SDS011;23161;51.250;5.554;2022-09-03T07:18:52;4.32;;;2.75;;
37273;SDS011;23161;51.250;5.554;2022-09-03T07:21:22;7.03;;;2.97;;
37273;SDS011;23161;51.250;5.554;2022-09-03T07:23:53;4.97;;;2.17;;
37273;SDS011;23161;51.250;5.554;2022-09-03T07:26:23;4.63;;;2.05;;
37273;SDS011;23161;51.250;5.554;2022-09-03T07:28:50;3.53;;;1.60;;
37273;SDS011;23161;51.250;5.554;2022-09-03T07:31:22;2.97;;;2.00;;
37273;SDS011;23161;51.250;5.554;2022-09-03T07:33:52;1.20;;;1.20;;
37273;SDS011;23161;51.250;5.554;2022-09-03T07:36:22;1.85;;;0.95;;
37273;SDS011;23161;51.250;5.554;2022-09-03T07:38:48;3.70;;;1.80;;
37273;SDS011;23161;51.250;5.554;2022-09-03T07:41:15;1.55;;;1.20;;
37273;SDS011;23161;51.250;5.554;2022-09-03T07:43:45;10.57;;;2.78;;
37273;SDS011;23161;51.250;5.554;2022-09-03T07:46:14;0.77;;;0.75;;
37273;SDS011;23161;51.250;5.554;2022-09-03T07:48:48;1.23;;;1.10;;
37273;SDS011;23161;51.250;5.554;2022-09-03T07:51:16;6.60;;;1.58;;
37273;SDS011;23161;51.250;5.554;2022-09-03T07:53:43;3.75;;;1.58;;
37273;SDS011;23161;51.250;5.554;2022-09-03T07:56:10;0.90;;;0.90;;
37273;SDS011;23161;51.250;5.554;2022-09-03T07:58:37;2.63;;;1.05;;
37273;SDS011;23161;51.250;5.554;2022-09-03T08:01:08;9.32;;;1.77;;
37273;SDS011;23161;51.250;5.554;2022-09-03T08:03:36;2.35;;;0.70;;
37273;SDS011;23161;51.250;5.554;2022-09-03T08:06:04;3.88;;;1.40;;
37273;SDS011;23161;51.250;5.554;2022-09-03T08:08:32;1.13;;;1.02;;
37273;SDS011;23161;51.250;5.554;2022-09-03T08:11:04;1.27;;;0.95;;
37273;SDS011;23161;51.250;5.554;2022-09-03T08:18:35;1.02;;;1.02;;
37273;SDS011;23161;51.250;5.554;2022-09-03T08:21:07;2.22;;;1.15;;
37273;SDS011;23161;51.250;5.554;2022-09-03T08:23:40;1.23;;;0.95;;
37273;SDS011;23161;51.250;5.554;2022-09-03T08:26:10;0.95;;;0.70;;
37273;SDS011;23161;51.250;5.554;2022-09-03T08:29:03;0.88;;;0.65;;
37273;SDS011;23161;51.250;5.554;2022-09-03T08:31:30;2.30;;;1.40;;
37273;SDS011;23161;51.250;5.554;2022-09-03T08:33:57;1.27;;;1.08;;
37273;SDS011;23161;51.250;5.554;2022-09-03T08:36:28;1.15;;;1.05;;
37273;SDS011;23161;51.250;5.554;2022-09-03T08:38:55;1.70;;;1.60;;
37273;SDS011;23161;51.250;5.554;2022-09-03T08:41:42;8.95;;;1.55;;
37273;SDS011;23161;51.250;5.554;2022-09-03T08:47:13;1.17;;;1.08;;
37273;SDS011;23161;51.250;5.554;2022-09-03T08:52:44;4.57;;;1.50;;
37273;SDS011;23161;51.250;5.554;2022-09-03T08:55:22;0.68;;;0.68;;
37273;SDS011;23161;51.250;5.554;2022-09-03T08:58:07;1.60;;;1.00;;
37273;SDS011;23161;51.250;5.554;2022-09-03T09:06:05;2.15;;;1.50;;
37273;SDS011;23161;51.250;5.554;2022-09-03T09:08:52;0.95;;;0.80;;
37273;SDS011;23161;51.250;5.554;2022-09-03T09:21:42;3.13;;;1.52;;
37273;SDS011;23161;51.250;5.554;2022-09-03T09:24:18;2.85;;;1.35;;
37273;SDS011;23161;51.250;5.554;2022-09-03T09:26:48;3.33;;;2.00;;
37273;SDS011;23161;51.250;5.554;2022-09-03T09:29:16;3.30;;;1.33;;
37273;SDS011;23161;51.250;5.554;2022-09-03T09:31:42;4.90;;;1.98;;
37273;SDS011;23161;51.250;5.554;2022-09-03T09:34:09;2.10;;;1.90;;
37273;SDS011;23161;51.250;5.554;2022-09-03T09:36:49;1.98;;;1.38;;
37273;SDS011;23161;51.250;5.554;2022-09-03T09:39:18;4.78;;;0.73;;
37273;SDS011;23161;51.250;5.554;2022-09-03T09:41:57;6.20;;;1.20;;
37273;SDS011;23161;51.250;5.554;2022-09-03T09:44:25;3.80;;;1.50;;
37273;SDS011;23161;51.250;5.554;2022-09-03T09:46:59;3.72;;;1.35;;
37273;SDS011;23161;51.250;5.554;2022-09-03T09:49:32;2.60;;;1.25;;
37273;SDS011;23161;51.250;5.554;2022-09-03T09:52:10;4.47;;;1.67;;
37273;SDS011;23161;51.250;5.554;2022-09-03T09:54:38;1.50;;;1.20;;
37273;SDS011;23161;51.250;5.554;2022-09-03T09:57:07;1.58;;;1.20;;
37273;SDS011;23161;51.250;5.554;2022-09-03T09:59:42;1.30;;;1.00;;
37273;SDS011;23161;51.250;5.554;2022-09-03T10:02:11;1.75;;;1.65;;
37273;SDS011;23161;51.250;5.554;2022-09-03T10:04:39;1.55;;;1.45;;
37273;SDS011;23161;51.250;5.554;2022-09-03T10:07:21;1.10;;;1.00;;
37273;SDS011;23161;51.250;5.554;2022-09-03T10:09:58;2.83;;;1.52;;
37273;SDS011;23161;51.250;5.554;2022-09-03T10:12:36;2.60;;;1.23;;
37273;SDS011;23161;51.250;5.554;2022-09-03T10:15:14;2.30;;;1.58;;
37273;SDS011;23161;51.250;5.554;2022-09-03T10:18:02;3.08;;;0.80;;
37273;SDS011;23161;51.250;5.554;2022-09-03T10:24:01;3.40;;;1.30;;
37273;SDS011;23161;51.250;5.554;2022-09-03T10:26:28;1.88;;;0.98;;
37273;SDS011;23161;51.250;5.554;2022-09-03T10:28:59;3.60;;;1.17;;
37273;SDS011;23161;51.250;5.554;2022-09-03T10:34:15;1.73;;;1.00;;
37273;SDS011;23161;51.250;5.554;2022-09-03T10:42:49;1.23;;;1.23;;
37273;SDS011;23161;51.250;5.554;2022-09-03T10:45:54;2.55;;;1.63;;
37273;SDS011;23161;51.250;5.554;2022-09-03T10:49:17;2.65;;;1.27;;
37273;SDS011;23161;51.250;5.554;2022-09-03T10:51:19;1.00;;;1.00;;
37273;SDS011;23161;51.250;5.554;2022-09-03T10:56:24;1.20;;;1.20;;
37273;SDS011;23161;51.250;5.554;2022-09-03T11:04:46;3.40;;;0.95;;
37273;SDS011;23161;51.250;5.554;2022-09-03T11:07:20;1.58;;;1.15;;
37273;SDS011;23161;51.250;5.554;2022-09-03T11:17:53;3.47;;;1.58;;
37273;SDS011;23161;51.250;5.554;2022-09-03T11:20:40;6.78;;;1.70;;
37273;SDS011;23161;51.250;5.554;2022-09-03T11:23:07;6.97;;;2.20;;
37273;SDS011;23161;51.250;5.554;2022-09-03T11:25:40;3.05;;;1.27;;
37273;SDS011;23161;51.250;5.554;2022-09-03T11:31:05;3.95;;;1.65;;
37273;SDS011;23161;51.250;5.554;2022-09-03T11:34:13;1.67;;;1.58;;
37273;SDS011;23161;51.250;5.554;2022-09-03T11:36:40;2.77;;;1.93;;
37273;SDS011;23161;51.250;5.554;2022-09-03T11:42:00;2.35;;;2.15;;
37273;SDS011;23161;51.250;5.554;2022-09-03T11:44:34;8.65;;;2.83;;
37273;SDS011;23161;51.250;5.554;2022-09-03T11:47:14;1.98;;;1.77;;
37273;SDS011;23161;51.250;5.554;2022-09-03T11:49:49;4.97;;;2.58;;
37273;SDS011;23161;51.250;5.554;2022-09-03T11:52:26;1.70;;;1.60;;
37273;SDS011;23161;51.250;5.554;2022-09-03T11:54:53;1.52;;;1.38;;
37273;SDS011;23161;51.250;5.554;2022-09-03T11:57:27;2.58;;;2.05;;
37273;SDS011;23161;51.250;5.554;2022-09-03T12:00:05;4.20;;;2.13;;
37273;SDS011;23161;51.250;5.554;2022-09-03T12:02:36;4.55;;;1.98;;
37273;SDS011;23161;51.250;5.554;2022-09-03T12:08:03;1.52;;;1.42;;
37273;SDS011;23161;51.250;5.554;2022-09-03T12:13:17;1.92;;;1.42;;
37273;SDS011;23161;51.250;5.554;2022-09-03T12:18:59;1.30;;;1.20;;
37273;SDS011;23161;51.250;5.554;2022-09-03T12:21:36;2.92;;;1.52;;
37273;SDS011;23161;51.250;5.554;2022-09-03T12:24:02;2.03;;;1.80;;
37273;SDS011;23161;51.250;5.554;2022-09-03T12:26:28;2.42;;;2.22;;
37273;SDS011;23161;51.250;5.554;2022-09-03T12:28:55;2.22;;;1.67;;
37273;SDS011;23161;51.250;5.554;2022-09-03T12:31:22;1.67;;;1.58;;
37273;SDS011;23161;51.250;5.554;2022-09-03T12:36:35;3.65;;;3.08;;
37273;SDS011;23161;51.250;5.554;2022-09-03T12:39:13;2.08;;;1.98;;
37273;SDS011;23161;51.250;5.554;2022-09-03T12:41:52;3.28;;;1.70;;
37273;SDS011;23161;51.250;5.554;2022-09-03T12:44:26;2.75;;;1.75;;
37273;SDS011;23161;51.250;5.554;2022-09-03T12:47:10;1.90;;;1.80;;
37273;SDS011;23161;51.250;5.554;2022-09-03T12:49:41;4.38;;;2.30;;
37273;SDS011;23161;51.250;5.554;2022-09-03T12:54:59;4.60;;;2.20;;
37273;SDS011;23161;51.250;5.554;2022-09-03T12:57:43;3.28;;;2.97;;
37273;SDS011;23161;51.250;5.554;2022-09-03T13:00:15;3.70;;;1.88;;
37273;SDS011;23161;51.250;5.554;2022-09-03T13:02:48;3.83;;;2.80;;
37273;SDS011;23161;51.250;5.554;2022-09-03T13:05:22;1.98;;;1.77;;
37273;SDS011;23161;51.250;5.554;2022-09-03T13:08:00;1.60;;;1.50;;
37273;SDS011;23161;51.250;5.554;2022-09-03T13:10:37;3.55;;;2.38;;
37273;SDS011;23161;51.250;5.554;2022-09-03T13:13:20;1.95;;;1.63;;
37273;SDS011;23161;51.250;5.554;2022-09-03T13:21:18;1.80;;;1.70;;
37273;SDS011;23161;51.250;5.554;2022-09-03T13:32:22;2.17;;;1.98;;
37273;SDS011;23161;51.250;5.554;2022-09-03T13:35:04;5.80;;;2.38;;
37273;SDS011;23161;51.250;5.554;2022-09-03T13:40:40;2.10;;;1.73;;
37273;SDS011;23161;51.250;5.554;2022-09-03T13:43:22;2.35;;;2.15;;
37273;SDS011;23161;51.250;5.554;2022-09-03T13:46:01;2.05;;;1.83;;
37273;SDS011;23161;51.250;5.554;2022-09-03T13:48:34;2.33;;;2.20;;
37273;SDS011;23161;51.250;5.554;2022-09-03T13:51:30;2.85;;;2.03;;
37273;SDS011;23161;51.250;5.554;2022-09-03T13:54:15;2.20;;;1.90;;
37273;SDS011;23161;51.250;5.554;2022-09-03T14:02:45;3.80;;;2.03;;
37273;SDS011;23161;51.250;5.554;2022-09-03T14:20:26;2.42;;;1.23;;
37273;SDS011;23161;51.250;5.554;2022-09-03T14:23:45;2.03;;;1.92;;
37273;SDS011;23161;51.250;5.554;2022-09-03T14:26:13;2.08;;;1.98;;
37273;SDS011;23161;51.250;5.554;2022-09-03T14:28:48;5.03;;;1.92;;
37273;SDS011;23161;51.250;5.554;2022-09-03T14:31:57;8.77;;;1.98;;
37273;SDS011;23161;51.250;5.554;2022-09-03T14:37:32;6.55;;;2.65;;
37273;SDS011;23161;51.250;5.554;2022-09-03T14:42:46;1.50;;;1.40;;
37273;SDS011;23161;51.250;5.554;2022-09-03T14:48:19;3.70;;;2.38;;
37273;SDS011;23161;51.250;5.554;2022-09-03T14:56:49;3.03;;;2.33;;
37273;SDS011;23161;51.250;5.554;2022-09-03T15:07:53;4.20;;;2.72;;
37273;SDS011;23161;51.250;5.554;2022-09-03T15:13:07;3.63;;;2.25;;
37273;SDS011;23161;51.250;5.554;2022-09-03T15:37:19;23.17;;;4.15;;
37273;SDS011;23161;51.250;5.554;2022-09-03T15:42:59;5.07;;;2.67;;
37273;SDS011;23161;51.250;5.554;2022-09-03T15:45:36;5.20;;;2.65;;
37273;SDS011;23161;51.250;5.554;2022-09-03T15:56:42;3.17;;;2.15;;
37273;SDS011;23161;51.250;5.554;2022-09-03T16:02:19;8.07;;;3.15;;
37273;SDS011;23161;51.250;5.554;2022-09-03T16:05:07;1.60;;;1.25;;
37273;SDS011;23161;51.250;5.554;2022-09-03T16:07:57;2.42;;;1.95;;
37273;SDS011;23161;51.250;5.554;2022-09-03T16:16:40;1.38;;;1.38;;
37273;SDS011;23161;51.250;5.554;2022-09-03T16:19:08;3.55;;;1.92;;
37273;SDS011;23161;51.250;5.554;2022-09-03T16:21:45;2.78;;;1.60;;
37273;SDS011;23161;51.250;5.554;2022-09-03T16:24:30;2.80;;;1.75;;
37273;SDS011;23161;51.250;5.554;2022-09-03T16:27:20;2.08;;;1.52;;
37273;SDS011;23161;51.250;5.554;2022-09-03T16:32:32;1.65;;;1.55;;
37273;SDS011;23161;51.250;5.554;2022-09-03T17:00:35;1.83;;;1.70;;
37273;SDS011;23161;51.250;5.554;2022-09-03T17:06:04;1.75;;;1.65;;
37273;SDS011;23161;51.250;5.554;2022-09-03T17:08:54;3.80;;;1.73;;
37273;SDS011;23161;51.250;5.554;2022-09-03T17:22:35;2.28;;;2.08;;
37273;SDS011;23161;51.250;5.554;2022-09-03T17:25:28;5.78;;;1.73;;
37273;SDS011;23161;51.250;5.554;2022-09-03T17:36:54;3.78;;;2.10;;
37273;SDS011;23161;51.250;5.554;2022-09-03T17:42:29;13.05;;;3.20;;
37273;SDS011;23161;51.250;5.554;2022-09-03T17:45:40;63.72;;;14.65;;
37273;SDS011;23161;51.250;5.554;2022-09-03T17:50:52;185.13;;;31.77;;
37273;SDS011;23161;51.250;5.554;2022-09-03T17:56:08;143.90;;;27.25;;
37273;SDS011;23161;51.250;5.554;2022-09-03T17:58:45;96.45;;;21.80;;
37273;SDS011;23161;51.250;5.554;2022-09-03T18:01:25;109.82;;;23.33;;
37273;SDS011;23161;51.250;5.554;2022-09-03T18:03:54;77.30;;;13.77;;
37273;SDS011;23161;51.250;5.554;2022-09-03T18:09:02;80.13;;;17.63;;
37273;SDS011;23161;51.250;5.554;2022-09-03T18:16:31;44.58;;;9.40;;
37273;SDS011;23161;51.250;5.554;2022-09-03T18:19:01;45.40;;;7.10;;
37273;SDS011;23161;51.250;5.554;2022-09-03T18:21:42;15.00;;;6.18;;
37273;SDS011;23161;51.250;5.554;2022-09-03T18:24:29;9.63;;;3.05;;
37273;SDS011;23161;51.250;5.554;2022-09-03T18:27:18;5.15;;;3.78;;
37273;SDS011;23161;51.250;5.554;2022-09-03T18:30:10;5.72;;;3.30;;
37273;SDS011;23161;51.250;5.554;2022-09-03T18:32:58;4.40;;;2.60;;
37273;SDS011;23161;51.250;5.554;2022-09-03T18:35:43;2.45;;;2.25;;
37273;SDS011;23161;51.250;5.554;2022-09-03T18:38:35;2.60;;;2.40;;
37273;SDS011;23161;51.250;5.554;2022-09-03T18:41:32;6.65;;;3.58;;
37273;SDS011;23161;51.250;5.554;2022-09-03T18:44:55;7.15;;;4.05;;
37273;SDS011;23161;51.250;5.554;2022-09-03T18:50:57;4.53;;;2.72;;
37273;SDS011;23161;51.250;5.554;2022-09-03T18:57:26;4.93;;;2.65;;
37273;SDS011;23161;51.250;5.554;2022-09-03T19:00:21;5.63;;;1.92;;
37273;SDS011;23161;51.250;5.554;2022-09-03T19:03:18;8.02;;;2.15;;
37273;SDS011;23161;51.250;5.554;2022-09-03T19:06:42;9.57;;;2.85;;
37273;SDS011;23161;51.250;5.554;2022-09-03T19:09:39;3.28;;;2.50;;
37273;SDS011;23161;51.250;5.554;2022-09-03T19:12:43;7.97;;;2.70;;
37273;SDS011;23161;51.250;5.554;2022-09-03T19:15:38;11.98;;;2.65;;
37273;SDS011;23161;51.250;5.554;2022-09-03T19:24:16;10.02;;;4.50;;
37273;SDS011;23161;51.250;5.554;2022-09-03T19:27:10;6.72;;;3.58;;
37273;SDS011;23161;51.250;5.554;2022-09-03T19:30:15;4.00;;;3.35;;
37273;SDS011;23161;51.250;5.554;2022-09-03T19:33:12;10.88;;;3.13;;
37273;SDS011;23161;51.250;5.554;2022-09-03T19:42:10;3.10;;;2.42;;
37273;SDS011;23161;51.250;5.554;2022-09-03T19:45:21;5.40;;;2.92;;
37273;SDS011;23161;51.250;5.554;2022-09-03T19:51:28;4.63;;;3.13;;
37273;SDS011;23161;51.250;5.554;2022-09-03T19:54:19;5.32;;;3.67;;
37273;SDS011;23161;51.250;5.554;2022-09-03T19:57:07;4.35;;;3.35;;
37273;SDS011;23161;51.250;5.554;2022-09-03T19:59:53;3.20;;;2.88;;
37273;SDS011;23161;51.250;5.554;2022-09-03T20:02:39;7.20;;;3.60;;
37273;SDS011;23161;51.250;5.554;2022-09-03T20:05:25;6.13;;;3.15;;
37273;SDS011;23161;51.250;5.554;2022-09-03T20:08:11;12.85;;;3.50;;
37273;SDS011;23161;51.250;5.554;2022-09-03T20:10:58;17.08;;;3.63;;
37273;SDS011;23161;51.250;5.554;2022-09-03T20:13:27;9.52;;;3.80;;
37273;SDS011;23161;51.250;5.554;2022-09-03T20:16:22;6.75;;;3.30;;
37273;SDS011;23161;51.250;5.554;2022-09-03T20:30:00;8.00;;;4.20;;
37273;SDS011;23161;51.250;5.554;2022-09-03T20:32:38;4.80;;;3.50;;
37273;SDS011;23161;51.250;5.554;2022-09-03T20:35:21;6.60;;;4.03;;
37273;SDS011;23161;51.250;5.554;2022-09-03T20:51:35;4.72;;;3.13;;
37273;SDS011;23161;51.250;5.554;2022-09-03T20:54:17;4.78;;;4.38;;
37273;SDS011;23161;51.250;5.554;2022-09-03T20:59:32;3.58;;;3.38;;
37273;SDS011;23161;51.250;5.554;2022-09-03T21:07:54;6.95;;;4.10;;
37273;SDS011;23161;51.250;5.554;2022-09-03T21:10:41;6.68;;;4.28;;
37273;SDS011;23161;51.250;5.554;2022-09-03T21:16:06;5.07;;;4.57;;
37273;SDS011;23161;51.250;5.554;2022-09-03T21:24:28;6.13;;;4.47;;
37273;SDS011;23161;51.250;5.554;2022-09-03T21:27:00;5.35;;;4.18;;
37273;SDS011;23161;51.250;5.554;2022-09-03T21:29:36;4.40;;;3.53;;
37273;SDS011;23161;51.250;5.554;2022-09-03T21:37:28;3.47;;;3.17;;
37273;SDS011;23161;51.250;5.554;2022-09-03T21:39:58;7.90;;;4.07;;
37273;SDS011;23161;51.250;5.554;2022-09-03T21:42:42;4.03;;;3.70;;
37273;SDS011;23161;51.250;5.554;2022-09-03T21:45:33;4.28;;;3.33;;